sensor_id;sensor_type;location;lat;lon;timestamp;P1;durP1;ratioP1;P2;durP2;ratioP2
75758;SDS011;64371;47.566;19.086;2023-02-19T00:01:08;2.40;;;1.10;;
75758;SDS011;64371;47.566;19.086;2023-02-19T00:07:20;2.60;;;0.95;;
75758;SDS011;64371;47.566;19.086;2023-02-19T00:10:22;3.38;;;1.00;;
75758;SDS011;64371;47.566;19.086;2023-02-19T00:13:27;2.75;;;1.10;;
75758;SDS011;64371;47.566;19.086;2023-02-19T00:16:35;1.87;;;1.20;;
75758;SDS011;64371;47.566;19.086;2023-02-19T00:19:40;2.38;;;1.00;;
75758;SDS011;64371;47.566;19.086;2023-02-19T00:22:47;1.40;;;0.95;;
75758;SDS011;64371;47.566;19.086;2023-02-19T00:25:49;1.98;;;0.85;;
75758;SDS011;64371;47.566;19.086;2023-02-19T00:28:52;1.63;;;0.95;;
75758;SDS011;64371;47.566;19.086;2023-02-19T00:32:02;4.53;;;1.27;;
75758;SDS011;64371;47.566;19.086;2023-02-19T00:35:06;1.63;;;0.93;;
75758;SDS011;64371;47.566;19.086;2023-02-19T00:38:10;1.58;;;1.08;;
75758;SDS011;64371;47.566;19.086;2023-02-19T00:41:17;1.45;;;0.90;;
75758;SDS011;64371;47.566;19.086;2023-02-19T00:44:23;1.45;;;0.88;;
75758;SDS011;64371;47.566;19.086;2023-02-19T00:47:28;1.50;;;1.00;;
75758;SDS011;64371;47.566;19.086;2023-02-19T00:50:33;2.60;;;1.33;;
75758;SDS011;64371;47.566;19.086;2023-02-19T00:53:38;2.03;;;0.80;;
75758;SDS011;64371;47.566;19.086;2023-02-19T00:56:40;1.95;;;0.82;;
75758;SDS011;64371;47.566;19.086;2023-02-19T00:59:47;1.40;;;0.90;;
75758;SDS011;64371;47.566;19.086;2023-02-19T01:02:53;1.40;;;1.00;;
75758;SDS011;64371;47.566;19.086;2023-02-19T01:06:00;1.63;;;0.95;;
75758;SDS011;64371;47.566;19.086;2023-02-19T01:09:05;1.75;;;1.08;;
75758;SDS011;64371;47.566;19.086;2023-02-19T01:12:19;1.60;;;1.05;;
75758;SDS011;64371;47.566;19.086;2023-02-19T01:15:34;2.35;;;1.25;;
75758;SDS011;64371;47.566;19.086;2023-02-19T01:18:45;2.23;;;1.30;;
75758;SDS011;64371;47.566;19.086;2023-02-19T01:21:53;2.00;;;1.10;;
75758;SDS011;64371;47.566;19.086;2023-02-19T01:24:55;2.08;;;1.40;;
75758;SDS011;64371;47.566;19.086;2023-02-19T01:28:03;1.88;;;1.00;;
75758;SDS011;64371;47.566;19.086;2023-02-19T01:31:11;2.83;;;1.27;;
75758;SDS011;64371;47.566;19.086;2023-02-19T01:34:29;1.70;;;1.03;;
75758;SDS011;64371;47.566;19.086;2023-02-19T01:37:38;3.25;;;1.27;;
75758;SDS011;64371;47.566;19.086;2023-02-19T01:40:44;1.40;;;1.00;;
75758;SDS011;64371;47.566;19.086;2023-02-19T01:44:03;1.23;;;0.90;;
75758;SDS011;64371;47.566;19.086;2023-02-19T01:47:10;1.33;;;0.73;;
75758;SDS011;64371;47.566;19.086;2023-02-19T01:50:19;1.13;;;0.80;;
75758;SDS011;64371;47.566;19.086;2023-02-19T01:53:23;2.25;;;0.88;;
75758;SDS011;64371;47.566;19.086;2023-02-19T01:56:33;1.33;;;0.90;;
75758;SDS011;64371;47.566;19.086;2023-02-19T01:59:39;1.33;;;0.80;;
75758;SDS011;64371;47.566;19.086;2023-02-19T02:02:50;1.08;;;0.80;;
75758;SDS011;64371;47.566;19.086;2023-02-19T02:09:13;1.30;;;0.80;;
75758;SDS011;64371;47.566;19.086;2023-02-19T02:12:55;1.52;;;1.02;;
75758;SDS011;64371;47.566;19.086;2023-02-19T02:19:31;1.63;;;0.70;;
75758;SDS011;64371;47.566;19.086;2023-02-19T02:22:43;1.10;;;0.60;;
75758;SDS011;64371;47.566;19.086;2023-02-19T02:36:32;0.65;;;0.40;;
75758;SDS011;64371;47.566;19.086;2023-02-19T02:39:40;1.17;;;0.70;;
75758;SDS011;64371;47.566;19.086;2023-02-19T02:42:55;1.17;;;0.55;;
75758;SDS011;64371;47.566;19.086;2023-02-19T02:46:01;1.10;;;0.60;;
75758;SDS011;64371;47.566;19.086;2023-02-19T02:49:21;0.80;;;0.47;;
75758;SDS011;64371;47.566;19.086;2023-02-19T02:52:26;1.08;;;0.60;;
75758;SDS011;64371;47.566;19.086;2023-02-19T02:55:48;0.73;;;0.50;;
75758;SDS011;64371;47.566;19.086;2023-02-19T02:59:01;0.88;;;0.57;;
75758;SDS011;64371;47.566;19.086;2023-02-19T03:05:16;0.93;;;0.57;;
75758;SDS011;64371;47.566;19.086;2023-02-19T03:09:06;0.70;;;0.35;;
75758;SDS011;64371;47.566;19.086;2023-02-19T03:12:14;1.13;;;0.50;;
75758;SDS011;64371;47.566;19.086;2023-02-19T03:15:42;0.70;;;0.40;;
75758;SDS011;64371;47.566;19.086;2023-02-19T03:19:07;1.38;;;0.68;;
75758;SDS011;64371;47.566;19.086;2023-02-19T03:22:29;1.02;;;0.75;;
75758;SDS011;64371;47.566;19.086;2023-02-19T03:25:40;1.25;;;0.55;;
75758;SDS011;64371;47.566;19.086;2023-02-19T03:29:16;0.80;;;0.43;;
75758;SDS011;64371;47.566;19.086;2023-02-19T03:32:32;0.98;;;0.50;;
75758;SDS011;64371;47.566;19.086;2023-02-19T03:35:58;1.88;;;0.52;;
75758;SDS011;64371;47.566;19.086;2023-02-19T03:39:06;0.70;;;0.40;;
75758;SDS011;64371;47.566;19.086;2023-02-19T03:42:19;1.05;;;0.70;;
75758;SDS011;64371;47.566;19.086;2023-02-19T03:49:44;1.17;;;0.60;;
75758;SDS011;64371;47.566;19.086;2023-02-19T03:56:06;1.35;;;0.80;;
75758;SDS011;64371;47.566;19.086;2023-02-19T03:59:17;1.65;;;0.50;;
75758;SDS011;64371;47.566;19.086;2023-02-19T04:02:30;0.80;;;0.50;;
75758;SDS011;64371;47.566;19.086;2023-02-19T04:05:41;2.08;;;0.52;;
75758;SDS011;64371;47.566;19.086;2023-02-19T04:08:52;1.13;;;0.52;;
75758;SDS011;64371;47.566;19.086;2023-02-19T04:12:00;1.88;;;0.60;;
75758;SDS011;64371;47.566;19.086;2023-02-19T04:15:05;1.85;;;0.75;;
75758;SDS011;64371;47.566;19.086;2023-02-19T04:18:27;1.77;;;0.60;;
75758;SDS011;64371;47.566;19.086;2023-02-19T04:21:35;1.17;;;0.47;;
75758;SDS011;64371;47.566;19.086;2023-02-19T04:24:43;1.00;;;0.50;;
75758;SDS011;64371;47.566;19.086;2023-02-19T04:27:51;0.70;;;0.40;;
75758;SDS011;64371;47.566;19.086;2023-02-19T04:31:03;1.02;;;0.40;;
75758;SDS011;64371;47.566;19.086;2023-02-19T04:34:05;1.80;;;0.40;;
75758;SDS011;64371;47.566;19.086;2023-02-19T04:37:07;1.05;;;0.50;;
75758;SDS011;64371;47.566;19.086;2023-02-19T04:40:10;0.85;;;0.43;;
75758;SDS011;64371;47.566;19.086;2023-02-19T04:43:12;0.88;;;0.65;;
75758;SDS011;64371;47.566;19.086;2023-02-19T04:46:20;2.08;;;0.50;;
75758;SDS011;64371;47.566;19.086;2023-02-19T04:49:26;1.20;;;0.60;;
75758;SDS011;64371;47.566;19.086;2023-02-19T04:52:28;1.00;;;0.40;;
75758;SDS011;64371;47.566;19.086;2023-02-19T04:55:42;0.93;;;0.40;;
75758;SDS011;64371;47.566;19.086;2023-02-19T04:58:44;1.00;;;0.40;;
75758;SDS011;64371;47.566;19.086;2023-02-19T05:01:47;1.25;;;0.47;;
75758;SDS011;64371;47.566;19.086;2023-02-19T05:04:49;1.30;;;0.43;;
75758;SDS011;64371;47.566;19.086;2023-02-19T05:07:58;1.27;;;0.70;;
75758;SDS011;64371;47.566;19.086;2023-02-19T05:11:02;1.40;;;0.57;;
75758;SDS011;64371;47.566;19.086;2023-02-19T05:14:13;2.00;;;0.50;;
75758;SDS011;64371;47.566;19.086;2023-02-19T05:17:19;1.45;;;0.57;;
75758;SDS011;64371;47.566;19.086;2023-02-19T05:20:32;1.30;;;0.50;;
75758;SDS011;64371;47.566;19.086;2023-02-19T05:23:35;1.08;;;0.30;;
75758;SDS011;64371;47.566;19.086;2023-02-19T05:26:40;0.88;;;0.60;;
75758;SDS011;64371;47.566;19.086;2023-02-19T05:29:45;0.90;;;0.47;;
75758;SDS011;64371;47.566;19.086;2023-02-19T05:32:51;1.13;;;0.68;;
75758;SDS011;64371;47.566;19.086;2023-02-19T05:35:54;0.80;;;0.47;;
75758;SDS011;64371;47.566;19.086;2023-02-19T05:39:06;1.10;;;0.50;;
75758;SDS011;64371;47.566;19.086;2023-02-19T05:42:17;0.70;;;0.30;;
75758;SDS011;64371;47.566;19.086;2023-02-19T05:45:20;1.30;;;0.55;;
75758;SDS011;64371;47.566;19.086;2023-02-19T05:48:22;1.40;;;0.60;;
75758;SDS011;64371;47.566;19.086;2023-02-19T05:51:29;1.47;;;0.40;;
75758;SDS011;64371;47.566;19.086;2023-02-19T05:54:38;0.73;;;0.50;;
75758;SDS011;64371;47.566;19.086;2023-02-19T05:57:41;0.90;;;0.70;;
75758;SDS011;64371;47.566;19.086;2023-02-19T06:00:48;1.15;;;0.70;;
75758;SDS011;64371;47.566;19.086;2023-02-19T06:03:53;1.15;;;0.80;;
75758;SDS011;64371;47.566;19.086;2023-02-19T06:07:01;0.67;;;0.50;;
75758;SDS011;64371;47.566;19.086;2023-02-19T06:10:03;0.70;;;0.43;;
75758;SDS011;64371;47.566;19.086;2023-02-19T06:13:17;1.15;;;0.40;;
75758;SDS011;64371;47.566;19.086;2023-02-19T06:16:22;1.65;;;0.50;;
75758;SDS011;64371;47.566;19.086;2023-02-19T06:19:27;1.27;;;0.70;;
75758;SDS011;64371;47.566;19.086;2023-02-19T06:22:32;1.13;;;0.70;;
75758;SDS011;64371;47.566;19.086;2023-02-19T06:25:49;1.50;;;0.93;;
75758;SDS011;64371;47.566;19.086;2023-02-19T06:28:57;2.28;;;1.30;;
75758;SDS011;64371;47.566;19.086;2023-02-19T06:32:19;1.88;;;1.10;;
75758;SDS011;64371;47.566;19.086;2023-02-19T06:35:24;2.90;;;1.65;;
75758;SDS011;64371;47.566;19.086;2023-02-19T06:38:29;4.73;;;1.73;;
75758;SDS011;64371;47.566;19.086;2023-02-19T06:41:34;2.95;;;1.90;;
75758;SDS011;64371;47.566;19.086;2023-02-19T06:44:42;2.08;;;1.50;;
75758;SDS011;64371;47.566;19.086;2023-02-19T06:47:45;2.47;;;1.50;;
75758;SDS011;64371;47.566;19.086;2023-02-19T06:50:53;3.03;;;1.73;;
75758;SDS011;64371;47.566;19.086;2023-02-19T06:54:01;8.80;;;2.50;;
75758;SDS011;64371;47.566;19.086;2023-02-19T06:57:08;8.20;;;2.80;;
75758;SDS011;64371;47.566;19.086;2023-02-19T07:00:13;4.90;;;2.10;;
75758;SDS011;64371;47.566;19.086;2023-02-19T07:03:15;3.55;;;1.60;;
75758;SDS011;64371;47.566;19.086;2023-02-19T07:06:18;1.70;;;1.30;;
75758;SDS011;64371;47.566;19.086;2023-02-19T07:09:21;1.70;;;1.07;;
75758;SDS011;64371;47.566;19.086;2023-02-19T07:12:44;1.77;;;1.25;;
75758;SDS011;64371;47.566;19.086;2023-02-19T07:16:04;3.60;;;1.48;;
75758;SDS011;64371;47.566;19.086;2023-02-19T07:19:13;5.00;;;3.00;;
75758;SDS011;64371;47.566;19.086;2023-02-19T07:22:21;3.78;;;2.00;;
75758;SDS011;64371;47.566;19.086;2023-02-19T07:25:29;3.87;;;2.00;;
75758;SDS011;64371;47.566;19.086;2023-02-19T07:28:35;4.93;;;2.53;;
75758;SDS011;64371;47.566;19.086;2023-02-19T07:31:46;3.40;;;2.10;;
75758;SDS011;64371;47.566;19.086;2023-02-19T07:34:51;3.08;;;1.67;;
75758;SDS011;64371;47.566;19.086;2023-02-19T07:37:58;5.45;;;1.75;;
75758;SDS011;64371;47.566;19.086;2023-02-19T07:41:05;3.43;;;1.27;;
75758;SDS011;64371;47.566;19.086;2023-02-19T07:44:15;1.98;;;1.45;;
75758;SDS011;64371;47.566;19.086;2023-02-19T07:47:21;2.75;;;1.45;;
75758;SDS011;64371;47.566;19.086;2023-02-19T07:50:24;1.60;;;1.05;;
75758;SDS011;64371;47.566;19.086;2023-02-19T07:53:27;1.60;;;1.05;;
75758;SDS011;64371;47.566;19.086;2023-02-19T07:56:30;3.53;;;1.70;;
75758;SDS011;64371;47.566;19.086;2023-02-19T07:59:37;1.20;;;0.73;;
75758;SDS011;64371;47.566;19.086;2023-02-19T08:02:44;2.67;;;1.30;;
75758;SDS011;64371;47.566;19.086;2023-02-19T08:06:06;11.00;;;2.92;;
75758;SDS011;64371;47.566;19.086;2023-02-19T08:09:12;7.95;;;2.08;;
75758;SDS011;64371;47.566;19.086;2023-02-19T08:12:26;2.70;;;1.10;;
75758;SDS011;64371;47.566;19.086;2023-02-19T08:15:49;3.55;;;1.02;;
75758;SDS011;64371;47.566;19.086;2023-02-19T08:18:58;4.25;;;1.20;;
75758;SDS011;64371;47.566;19.086;2023-02-19T08:22:05;2.28;;;0.52;;
75758;SDS011;64371;47.566;19.086;2023-02-19T08:25:10;3.55;;;1.20;;
75758;SDS011;64371;47.566;19.086;2023-02-19T08:28:20;1.10;;;0.60;;
75758;SDS011;64371;47.566;19.086;2023-02-19T08:31:22;3.08;;;0.73;;
75758;SDS011;64371;47.566;19.086;2023-02-19T08:34:31;1.48;;;0.80;;
75758;SDS011;64371;47.566;19.086;2023-02-19T08:37:36;4.30;;;1.10;;
75758;SDS011;64371;47.566;19.086;2023-02-19T08:40:47;4.43;;;0.98;;
75758;SDS011;64371;47.566;19.086;2023-02-19T08:43:51;1.57;;;1.00;;
75758;SDS011;64371;47.566;19.086;2023-02-19T08:46:59;3.13;;;1.10;;
75758;SDS011;64371;47.566;19.086;2023-02-19T08:50:04;2.58;;;1.02;;
75758;SDS011;64371;47.566;19.086;2023-02-19T08:53:11;2.00;;;1.10;;
75758;SDS011;64371;47.566;19.086;2023-02-19T08:56:15;1.70;;;0.90;;
75758;SDS011;64371;47.566;19.086;2023-02-19T08:59:23;1.73;;;1.10;;
75758;SDS011;64371;47.566;19.086;2023-02-19T09:02:31;3.28;;;1.05;;
75758;SDS011;64371;47.566;19.086;2023-02-19T09:05:33;2.13;;;1.15;;
75758;SDS011;64371;47.566;19.086;2023-02-19T09:08:36;3.13;;;1.50;;
75758;SDS011;64371;47.566;19.086;2023-02-19T09:11:40;3.72;;;1.60;;
75758;SDS011;64371;47.566;19.086;2023-02-19T09:14:45;3.33;;;1.80;;
75758;SDS011;64371;47.566;19.086;2023-02-19T09:17:52;3.60;;;2.00;;
75758;SDS011;64371;47.566;19.086;2023-02-19T09:21:01;7.07;;;5.20;;
75758;SDS011;64371;47.566;19.086;2023-02-19T09:24:07;5.35;;;2.83;;
75758;SDS011;64371;47.566;19.086;2023-02-19T09:27:19;4.95;;;3.03;;
75758;SDS011;64371;47.566;19.086;2023-02-19T09:30:23;5.53;;;3.23;;
75758;SDS011;64371;47.566;19.086;2023-02-19T09:33:26;4.82;;;3.10;;
75758;SDS011;64371;47.566;19.086;2023-02-19T09:36:31;5.75;;;3.58;;
75758;SDS011;64371;47.566;19.086;2023-02-19T09:39:45;9.63;;;3.25;;
75758;SDS011;64371;47.566;19.086;2023-02-19T09:42:50;6.72;;;3.90;;
75758;SDS011;64371;47.566;19.086;2023-02-19T09:45:56;6.27;;;3.30;;
75758;SDS011;64371;47.566;19.086;2023-02-19T09:49:06;6.53;;;3.58;;
75758;SDS011;64371;47.566;19.086;2023-02-19T09:55:51;6.95;;;3.15;;
75758;SDS011;64371;47.566;19.086;2023-02-19T09:58:57;5.60;;;3.08;;
75758;SDS011;64371;47.566;19.086;2023-02-19T10:02:02;4.57;;;2.83;;
75758;SDS011;64371;47.566;19.086;2023-02-19T10:08:38;6.50;;;2.40;;
75758;SDS011;64371;47.566;19.086;2023-02-19T10:11:42;3.97;;;2.10;;
75758;SDS011;64371;47.566;19.086;2023-02-19T10:14:49;6.47;;;2.75;;
75758;SDS011;64371;47.566;19.086;2023-02-19T10:17:56;4.87;;;3.07;;
75758;SDS011;64371;47.566;19.086;2023-02-19T10:21:07;6.05;;;3.25;;
75758;SDS011;64371;47.566;19.086;2023-02-19T10:24:28;5.00;;;2.85;;
75758;SDS011;64371;47.566;19.086;2023-02-19T10:27:31;3.53;;;2.40;;
75758;SDS011;64371;47.566;19.086;2023-02-19T10:30:36;3.38;;;2.20;;
75758;SDS011;64371;47.566;19.086;2023-02-19T10:37:29;3.65;;;2.28;;
75758;SDS011;64371;47.566;19.086;2023-02-19T10:40:33;2.67;;;1.83;;
75758;SDS011;64371;47.566;19.086;2023-02-19T10:43:43;3.22;;;2.10;;
75758;SDS011;64371;47.566;19.086;2023-02-19T10:46:57;5.05;;;2.20;;
75758;SDS011;64371;47.566;19.086;2023-02-19T10:50:04;3.30;;;2.00;;
75758;SDS011;64371;47.566;19.086;2023-02-19T10:53:18;4.88;;;2.67;;
75758;SDS011;64371;47.566;19.086;2023-02-19T10:56:34;4.40;;;2.30;;
75758;SDS011;64371;47.566;19.086;2023-02-19T10:59:48;4.45;;;2.28;;
75758;SDS011;64371;47.566;19.086;2023-02-19T11:03:15;2.97;;;1.75;;
75758;SDS011;64371;47.566;19.086;2023-02-19T11:06:24;3.80;;;1.80;;
75758;SDS011;64371;47.566;19.086;2023-02-19T11:09:35;4.10;;;1.77;;
75758;SDS011;64371;47.566;19.086;2023-02-19T11:12:47;2.92;;;1.90;;
75758;SDS011;64371;47.566;19.086;2023-02-19T11:15:52;3.63;;;1.83;;
75758;SDS011;64371;47.566;19.086;2023-02-19T11:18:56;7.07;;;1.80;;
75758;SDS011;64371;47.566;19.086;2023-02-19T11:22:02;4.43;;;2.10;;
75758;SDS011;64371;47.566;19.086;2023-02-19T11:25:47;4.50;;;2.22;;
75758;SDS011;64371;47.566;19.086;2023-02-19T11:29:11;4.15;;;2.30;;
75758;SDS011;64371;47.566;19.086;2023-02-19T11:32:26;4.22;;;2.20;;
75758;SDS011;64371;47.566;19.086;2023-02-19T11:35:30;3.85;;;2.10;;
75758;SDS011;64371;47.566;19.086;2023-02-19T11:38:35;6.07;;;1.97;;
75758;SDS011;64371;47.566;19.086;2023-02-19T12:05:55;1.83;;;1.17;;
75758;SDS011;64371;47.566;19.086;2023-02-19T12:09:17;3.25;;;1.23;;
75758;SDS011;64371;47.566;19.086;2023-02-19T12:29:35;3.80;;;1.40;;
75758;SDS011;64371;47.566;19.086;2023-02-19T12:39:13;2.50;;;1.60;;
75758;SDS011;64371;47.566;19.086;2023-02-19T12:49:30;2.15;;;1.25;;
75758;SDS011;64371;47.566;19.086;2023-02-19T12:52:52;2.55;;;1.60;;
75758;SDS011;64371;47.566;19.086;2023-02-19T12:56:12;2.47;;;1.40;;
75758;SDS011;64371;47.566;19.086;2023-02-19T12:59:28;2.42;;;1.50;;
75758;SDS011;64371;47.566;19.086;2023-02-19T13:02:51;1.50;;;0.93;;
75758;SDS011;64371;47.566;19.086;2023-02-19T13:06:16;1.95;;;0.80;;
75758;SDS011;64371;47.566;19.086;2023-02-19T13:16:49;1.05;;;0.60;;
75758;SDS011;64371;47.566;19.086;2023-02-19T13:20:03;1.47;;;0.40;;
75758;SDS011;64371;47.566;19.086;2023-02-19T13:23:18;1.48;;;0.70;;
75758;SDS011;64371;47.566;19.086;2023-02-19T13:38:08;1.63;;;0.70;;
75758;SDS011;64371;47.566;19.086;2023-02-19T13:41:34;2.53;;;1.20;;
75758;SDS011;64371;47.566;19.086;2023-02-19T13:44:37;1.90;;;0.98;;
75758;SDS011;64371;47.566;19.086;2023-02-19T13:47:46;2.47;;;1.20;;
75758;SDS011;64371;47.566;19.086;2023-02-19T13:54:48;1.83;;;1.00;;
75758;SDS011;64371;47.566;19.086;2023-02-19T13:58:32;2.13;;;1.25;;
75758;SDS011;64371;47.566;19.086;2023-02-19T14:02:04;3.88;;;1.52;;
75758;SDS011;64371;47.566;19.086;2023-02-19T14:05:09;1.73;;;1.08;;
75758;SDS011;64371;47.566;19.086;2023-02-19T14:08:17;6.78;;;3.40;;
75758;SDS011;64371;47.566;19.086;2023-02-19T14:12:01;2.27;;;1.20;;
75758;SDS011;64371;47.566;19.086;2023-02-19T14:18:45;1.27;;;0.82;;
75758;SDS011;64371;47.566;19.086;2023-02-19T14:21:51;0.57;;;0.22;;
75758;SDS011;64371;47.566;19.086;2023-02-19T14:25:04;1.63;;;0.38;;
75758;SDS011;64371;47.566;19.086;2023-02-19T14:31:33;0.20;;;0.10;;
75758;SDS011;64371;47.566;19.086;2023-02-19T14:34:43;0.20;;;0.10;;
75758;SDS011;64371;47.566;19.086;2023-02-19T14:37:50;0.28;;;0.10;;
75758;SDS011;64371;47.566;19.086;2023-02-19T14:40:57;1.00;;;0.20;;
75758;SDS011;64371;47.566;19.086;2023-02-19T14:44:05;0.13;;;0.00;;
75758;SDS011;64371;47.566;19.086;2023-02-19T14:47:17;0.50;;;0.00;;
75758;SDS011;64371;47.566;19.086;2023-02-19T14:50:31;0.70;;;0.20;;
75758;SDS011;64371;47.566;19.086;2023-02-19T14:53:36;1.10;;;0.30;;
75758;SDS011;64371;47.566;19.086;2023-02-19T14:56:43;0.75;;;0.17;;
75758;SDS011;64371;47.566;19.086;2023-02-19T14:59:59;0.53;;;0.20;;
75758;SDS011;64371;47.566;19.086;2023-02-19T15:03:03;0.80;;;0.20;;
75758;SDS011;64371;47.566;19.086;2023-02-19T15:06:28;0.90;;;0.28;;
75758;SDS011;64371;47.566;19.086;2023-02-19T15:09:34;0.82;;;0.20;;
75758;SDS011;64371;47.566;19.086;2023-02-19T15:12:42;1.00;;;0.22;;
75758;SDS011;64371;47.566;19.086;2023-02-19T15:15:48;0.80;;;0.20;;
75758;SDS011;64371;47.566;19.086;2023-02-19T15:18:52;1.17;;;0.35;;
75758;SDS011;64371;47.566;19.086;2023-02-19T15:21:57;0.65;;;0.20;;
75758;SDS011;64371;47.566;19.086;2023-02-19T15:25:11;1.10;;;0.60;;
75758;SDS011;64371;47.566;19.086;2023-02-19T15:31:27;0.70;;;0.20;;
75758;SDS011;64371;47.566;19.086;2023-02-19T15:34:37;1.42;;;0.60;;
75758;SDS011;64371;47.566;19.086;2023-02-19T15:37:43;0.60;;;0.30;;
75758;SDS011;64371;47.566;19.086;2023-02-19T15:40:50;0.70;;;0.30;;
75758;SDS011;64371;47.566;19.086;2023-02-19T15:44:08;0.70;;;0.10;;
75758;SDS011;64371;47.566;19.086;2023-02-19T15:47:37;0.53;;;0.10;;
75758;SDS011;64371;47.566;19.086;2023-02-19T15:50:46;0.90;;;0.32;;
75758;SDS011;64371;47.566;19.086;2023-02-19T15:53:59;1.33;;;0.40;;
75758;SDS011;64371;47.566;19.086;2023-02-19T15:57:29;1.85;;;0.13;;
75758;SDS011;64371;47.566;19.086;2023-02-19T16:00:40;0.52;;;0.20;;
75758;SDS011;64371;47.566;19.086;2023-02-19T16:04:15;1.40;;;0.40;;
75758;SDS011;64371;47.566;19.086;2023-02-19T16:07:26;0.73;;;0.20;;
75758;SDS011;64371;47.566;19.086;2023-02-19T16:10:37;0.90;;;0.52;;
75758;SDS011;64371;47.566;19.086;2023-02-19T16:13:45;0.73;;;0.22;;
75758;SDS011;64371;47.566;19.086;2023-02-19T16:16:51;0.77;;;0.25;;
75758;SDS011;64371;47.566;19.086;2023-02-19T16:20:05;0.30;;;0.10;;
75758;SDS011;64371;47.566;19.086;2023-02-19T16:23:11;0.60;;;0.30;;
75758;SDS011;64371;47.566;19.086;2023-02-19T16:26:22;0.52;;;0.35;;
75758;SDS011;64371;47.566;19.086;2023-02-19T16:29:26;0.95;;;0.30;;
75758;SDS011;64371;47.566;19.086;2023-02-19T16:32:39;0.70;;;0.20;;
75758;SDS011;64371;47.566;19.086;2023-02-19T16:35:47;1.33;;;0.20;;
75758;SDS011;64371;47.566;19.086;2023-02-19T16:42:16;1.02;;;0.10;;
75758;SDS011;64371;47.566;19.086;2023-02-19T16:45:20;1.98;;;0.30;;
75758;SDS011;64371;47.566;19.086;2023-02-19T16:48:22;0.40;;;0.05;;
75758;SDS011;64371;47.566;19.086;2023-02-19T16:51:29;0.90;;;0.10;;
75758;SDS011;64371;47.566;19.086;2023-02-19T16:54:34;0.55;;;0.10;;
75758;SDS011;64371;47.566;19.086;2023-02-19T16:57:36;0.10;;;0.00;;
75758;SDS011;64371;47.566;19.086;2023-02-19T17:00:51;2.13;;;0.20;;
75758;SDS011;64371;47.566;19.086;2023-02-19T17:04:10;0.70;;;0.22;;
75758;SDS011;64371;47.566;19.086;2023-02-19T17:07:20;0.53;;;0.10;;
75758;SDS011;64371;47.566;19.086;2023-02-19T17:10:33;0.50;;;0.10;;
75758;SDS011;64371;47.566;19.086;2023-02-19T17:13:35;0.82;;;0.22;;
75758;SDS011;64371;47.566;19.086;2023-02-19T17:16:46;1.33;;;0.20;;
75758;SDS011;64371;47.566;19.086;2023-02-19T17:19:48;2.05;;;0.10;;
75758;SDS011;64371;47.566;19.086;2023-02-19T17:22:56;1.10;;;0.30;;
75758;SDS011;64371;47.566;19.086;2023-02-19T17:26:03;0.45;;;0.20;;
75758;SDS011;64371;47.566;19.086;2023-02-19T17:29:09;1.27;;;0.20;;
75758;SDS011;64371;47.566;19.086;2023-02-19T17:32:16;0.80;;;0.28;;
75758;SDS011;64371;47.566;19.086;2023-02-19T17:35:19;0.73;;;0.20;;
75758;SDS011;64371;47.566;19.086;2023-02-19T17:38:23;0.97;;;0.40;;
75758;SDS011;64371;47.566;19.086;2023-02-19T17:41:32;1.02;;;0.40;;
75758;SDS011;64371;47.566;19.086;2023-02-19T17:44:46;1.05;;;0.50;;
75758;SDS011;64371;47.566;19.086;2023-02-19T17:47:53;1.85;;;0.50;;
75758;SDS011;64371;47.566;19.086;2023-02-19T17:50:58;0.82;;;0.40;;
75758;SDS011;64371;47.566;19.086;2023-02-19T17:54:00;1.33;;;0.30;;
75758;SDS011;64371;47.566;19.086;2023-02-19T17:57:03;1.15;;;0.55;;
75758;SDS011;64371;47.566;19.086;2023-02-19T18:00:05;2.25;;;0.68;;
75758;SDS011;64371;47.566;19.086;2023-02-19T18:03:14;1.52;;;0.50;;
75758;SDS011;64371;47.566;19.086;2023-02-19T18:06:19;2.35;;;1.02;;
75758;SDS011;64371;47.566;19.086;2023-02-19T18:09:22;1.23;;;0.60;;
75758;SDS011;64371;47.566;19.086;2023-02-19T18:12:33;0.98;;;0.40;;
75758;SDS011;64371;47.566;19.086;2023-02-19T18:15:38;1.33;;;0.40;;
75758;SDS011;64371;47.566;19.086;2023-02-19T18:18:41;1.05;;;0.40;;
75758;SDS011;64371;47.566;19.086;2023-02-19T18:21:55;1.55;;;0.50;;
75758;SDS011;64371;47.566;19.086;2023-02-19T18:25:03;2.60;;;1.50;;
75758;SDS011;64371;47.566;19.086;2023-02-19T18:28:06;1.15;;;0.40;;
75758;SDS011;64371;47.566;19.086;2023-02-19T18:31:19;1.63;;;0.73;;
75758;SDS011;64371;47.566;19.086;2023-02-19T18:34:26;1.13;;;0.73;;
75758;SDS011;64371;47.566;19.086;2023-02-19T18:37:29;1.00;;;0.50;;
75758;SDS011;64371;47.566;19.086;2023-02-19T18:40:37;0.70;;;0.40;;
75758;SDS011;64371;47.566;19.086;2023-02-19T18:43:42;1.15;;;0.57;;
75758;SDS011;64371;47.566;19.086;2023-02-19T18:46:47;2.15;;;0.70;;
75758;SDS011;64371;47.566;19.086;2023-02-19T18:49:54;1.95;;;0.40;;
75758;SDS011;64371;47.566;19.086;2023-02-19T18:53:01;1.00;;;0.60;;
75758;SDS011;64371;47.566;19.086;2023-02-19T18:56:09;1.03;;;0.50;;
75758;SDS011;64371;47.566;19.086;2023-02-19T18:59:14;0.70;;;0.60;;
75758;SDS011;64371;47.566;19.086;2023-02-19T19:02:18;1.30;;;0.60;;
75758;SDS011;64371;47.566;19.086;2023-02-19T19:05:24;1.17;;;0.80;;
75758;SDS011;64371;47.566;19.086;2023-02-19T19:08:27;1.60;;;1.00;;
75758;SDS011;64371;47.566;19.086;2023-02-19T19:11:34;1.27;;;0.50;;
75758;SDS011;64371;47.566;19.086;2023-02-19T19:14:38;2.15;;;0.90;;
75758;SDS011;64371;47.566;19.086;2023-02-19T19:17:44;1.50;;;0.80;;
75758;SDS011;64371;47.566;19.086;2023-02-19T19:20:50;1.50;;;1.00;;
75758;SDS011;64371;47.566;19.086;2023-02-19T19:24:00;1.98;;;1.02;;
75758;SDS011;64371;47.566;19.086;2023-02-19T19:27:13;1.50;;;0.80;;
75758;SDS011;64371;47.566;19.086;2023-02-19T19:30:19;2.00;;;1.20;;
75758;SDS011;64371;47.566;19.086;2023-02-19T19:33:26;3.50;;;1.90;;
75758;SDS011;64371;47.566;19.086;2023-02-19T19:36:34;2.38;;;1.48;;
75758;SDS011;64371;47.566;19.086;2023-02-19T19:39:36;2.58;;;1.40;;
75758;SDS011;64371;47.566;19.086;2023-02-19T19:42:42;2.33;;;1.60;;
75758;SDS011;64371;47.566;19.086;2023-02-19T19:45:45;3.78;;;1.70;;
75758;SDS011;64371;47.566;19.086;2023-02-19T19:48:48;1.83;;;1.25;;
75758;SDS011;64371;47.566;19.086;2023-02-19T19:51:53;1.90;;;1.15;;
75758;SDS011;64371;47.566;19.086;2023-02-19T19:55:06;2.50;;;1.45;;
75758;SDS011;64371;47.566;19.086;2023-02-19T19:58:16;3.30;;;1.93;;
75758;SDS011;64371;47.566;19.086;2023-02-19T20:01:24;2.80;;;1.70;;
75758;SDS011;64371;47.566;19.086;2023-02-19T20:04:28;2.72;;;1.75;;
75758;SDS011;64371;47.566;19.086;2023-02-19T20:07:35;1.95;;;1.40;;
75758;SDS011;64371;47.566;19.086;2023-02-19T20:10:49;2.53;;;1.42;;
75758;SDS011;64371;47.566;19.086;2023-02-19T20:13:54;2.03;;;1.30;;
75758;SDS011;64371;47.566;19.086;2023-02-19T20:17:06;1.95;;;1.30;;
75758;SDS011;64371;47.566;19.086;2023-02-19T20:20:10;2.05;;;1.15;;
75758;SDS011;64371;47.566;19.086;2023-02-19T20:23:23;1.13;;;0.80;;
75758;SDS011;64371;47.566;19.086;2023-02-19T20:26:29;1.00;;;0.50;;
75758;SDS011;64371;47.566;19.086;2023-02-19T20:29:36;0.77;;;0.40;;
75758;SDS011;64371;47.566;19.086;2023-02-19T20:32:44;0.85;;;0.52;;
75758;SDS011;64371;47.566;19.086;2023-02-19T20:35:46;1.25;;;0.73;;
75758;SDS011;64371;47.566;19.086;2023-02-19T20:38:51;1.13;;;0.60;;
75758;SDS011;64371;47.566;19.086;2023-02-19T20:41:59;1.48;;;0.70;;
75758;SDS011;64371;47.566;19.086;2023-02-19T20:45:02;1.47;;;0.77;;
75758;SDS011;64371;47.566;19.086;2023-02-19T20:48:13;1.30;;;0.73;;
75758;SDS011;64371;47.566;19.086;2023-02-19T20:51:22;0.98;;;0.50;;
75758;SDS011;64371;47.566;19.086;2023-02-19T20:54:31;0.95;;;0.55;;